sensor_id;sensor_type;location;lat;lon;timestamp;P1;durP1;ratioP1;P2;durP2;ratioP2
26036;SDS011;13810;48.376;10.944;2022-10-16T00:00:25;5.13;;;3.10;;
26036;SDS011;13810;48.376;10.944;2022-10-16T00:00:56;4.97;;;3.47;;
26036;SDS011;13810;48.376;10.944;2022-10-16T00:01:27;5.10;;;3.55;;
26036;SDS011;13810;48.376;10.944;2022-10-16T00:02:00;5.07;;;3.10;;
26036;SDS011;13810;48.376;10.944;2022-10-16T00:02:30;9.60;;;3.03;;
26036;SDS011;13810;48.376;10.944;2022-10-16T00:03:01;8.73;;;2.75;;
26036;SDS011;13810;48.376;10.944;2022-10-16T00:03:34;6.57;;;3.75;;
26036;SDS011;13810;48.376;10.944;2022-10-16T00:04:05;5.68;;;3.47;;
26036;SDS011;13810;48.376;10.944;2022-10-16T00:04:35;6.22;;;3.45;;
26036;SDS011;13810;48.376;10.944;2022-10-16T00:05:06;5.60;;;3.40;;
26036;SDS011;13810;48.376;10.944;2022-10-16T00:05:43;4.47;;;2.83;;
26036;SDS011;13810;48.376;10.944;2022-10-16T00:06:14;4.47;;;3.10;;
26036;SDS011;13810;48.376;10.944;2022-10-16T00:06:47;4.18;;;3.20;;
26036;SDS011;13810;48.376;10.944;2022-10-16T00:07:17;4.60;;;2.78;;
26036;SDS011;13810;48.376;10.944;2022-10-16T00:07:48;5.43;;;2.80;;
26036;SDS011;13810;48.376;10.944;2022-10-16T00:08:18;9.15;;;3.33;;
26036;SDS011;13810;48.376;10.944;2022-10-16T00:08:49;4.68;;;3.00;;
26036;SDS011;13810;48.376;10.944;2022-10-16T00:09:20;5.78;;;3.22;;
26036;SDS011;13810;48.376;10.944;2022-10-16T00:09:51;3.85;;;2.92;;
26036;SDS011;13810;48.376;10.944;2022-10-16T00:10:22;6.50;;;3.15;;
26036;SDS011;13810;48.376;10.944;2022-10-16T00:10:58;4.57;;;2.92;;
26036;SDS011;13810;48.376;10.944;2022-10-16T00:11:37;5.85;;;3.10;;
26036;SDS011;13810;48.376;10.944;2022-10-16T00:12:09;4.40;;;3.08;;
26036;SDS011;13810;48.376;10.944;2022-10-16T00:12:40;4.78;;;2.78;;
26036;SDS011;13810;48.376;10.944;2022-10-16T00:13:10;4.45;;;2.97;;
26036;SDS011;13810;48.376;10.944;2022-10-16T00:13:41;4.70;;;2.90;;
26036;SDS011;13810;48.376;10.944;2022-10-16T00:14:14;7.68;;;3.65;;
26036;SDS011;13810;48.376;10.944;2022-10-16T00:14:45;7.15;;;3.15;;
26036;SDS011;13810;48.376;10.944;2022-10-16T00:15:16;4.00;;;2.83;;
26036;SDS011;13810;48.376;10.944;2022-10-16T00:15:46;3.38;;;2.40;;
26036;SDS011;13810;48.376;10.944;2022-10-16T00:16:17;4.88;;;3.45;;
26036;SDS011;13810;48.376;10.944;2022-10-16T00:16:48;5.40;;;3.03;;
26036;SDS011;13810;48.376;10.944;2022-10-16T00:17:19;8.00;;;3.60;;
26036;SDS011;13810;48.376;10.944;2022-10-16T00:17:49;5.38;;;3.22;;
26036;SDS011;13810;48.376;10.944;2022-10-16T00:18:20;7.65;;;3.53;;
26036;SDS011;13810;48.376;10.944;2022-10-16T00:18:51;6.05;;;3.35;;
26036;SDS011;13810;48.376;10.944;2022-10-16T00:19:21;4.82;;;3.20;;
26036;SDS011;13810;48.376;10.944;2022-10-16T00:19:52;4.25;;;3.15;;
26036;SDS011;13810;48.376;10.944;2022-10-16T00:20:23;4.20;;;3.17;;
26036;SDS011;13810;48.376;10.944;2022-10-16T00:20:53;5.32;;;3.05;;
26036;SDS011;13810;48.376;10.944;2022-10-16T00:21:26;3.90;;;2.63;;
26036;SDS011;13810;48.376;10.944;2022-10-16T00:21:58;2.85;;;2.30;;
26036;SDS011;13810;48.376;10.944;2022-10-16T00:22:29;4.30;;;3.00;;
26036;SDS011;13810;48.376;10.944;2022-10-16T00:23:00;7.03;;;3.50;;
26036;SDS011;13810;48.376;10.944;2022-10-16T00:23:31;5.25;;;3.38;;
26036;SDS011;13810;48.376;10.944;2022-10-16T00:24:06;4.45;;;3.03;;
26036;SDS011;13810;48.376;10.944;2022-10-16T00:24:38;6.03;;;3.10;;
26036;SDS011;13810;48.376;10.944;2022-10-16T00:25:09;5.07;;;3.28;;
26036;SDS011;13810;48.376;10.944;2022-10-16T00:25:39;5.72;;;3.00;;
26036;SDS011;13810;48.376;10.944;2022-10-16T00:26:12;4.90;;;2.63;;
26036;SDS011;13810;48.376;10.944;2022-10-16T00:26:44;3.85;;;2.92;;
26036;SDS011;13810;48.376;10.944;2022-10-16T00:27:15;6.10;;;3.03;;
26036;SDS011;13810;48.376;10.944;2022-10-16T00:27:46;3.53;;;2.67;;
26036;SDS011;13810;48.376;10.944;2022-10-16T00:28:17;6.28;;;3.13;;
26036;SDS011;13810;48.376;10.944;2022-10-16T00:28:48;4.18;;;2.65;;
26036;SDS011;13810;48.376;10.944;2022-10-16T00:29:20;3.88;;;2.45;;
26036;SDS011;13810;48.376;10.944;2022-10-16T00:29:51;4.25;;;2.85;;
26036;SDS011;13810;48.376;10.944;2022-10-16T00:30:22;4.38;;;2.35;;
26036;SDS011;13810;48.376;10.944;2022-10-16T00:30:53;6.50;;;2.70;;
26036;SDS011;13810;48.376;10.944;2022-10-16T00:31:24;6.28;;;2.90;;
26036;SDS011;13810;48.376;10.944;2022-10-16T00:31:55;5.38;;;2.88;;
26036;SDS011;13810;48.376;10.944;2022-10-16T00:32:26;5.65;;;2.60;;
26036;SDS011;13810;48.376;10.944;2022-10-16T00:32:57;2.42;;;2.03;;
26036;SDS011;13810;48.376;10.944;2022-10-16T00:33:27;2.78;;;2.33;;
26036;SDS011;13810;48.376;10.944;2022-10-16T00:33:58;3.75;;;2.60;;
26036;SDS011;13810;48.376;10.944;2022-10-16T00:34:30;7.03;;;2.78;;
26036;SDS011;13810;48.376;10.944;2022-10-16T00:35:01;4.68;;;2.25;;
26036;SDS011;13810;48.376;10.944;2022-10-16T00:35:33;4.55;;;2.80;;
26036;SDS011;13810;48.376;10.944;2022-10-16T00:36:04;3.05;;;2.25;;
26036;SDS011;13810;48.376;10.944;2022-10-16T00:36:36;4.03;;;2.45;;
26036;SDS011;13810;48.376;10.944;2022-10-16T00:37:07;2.38;;;2.17;;
26036;SDS011;13810;48.376;10.944;2022-10-16T00:37:37;4.35;;;2.58;;
26036;SDS011;13810;48.376;10.944;2022-10-16T00:38:08;4.90;;;2.20;;
26036;SDS011;13810;48.376;10.944;2022-10-16T00:38:39;4.32;;;2.60;;
26036;SDS011;13810;48.376;10.944;2022-10-16T00:39:10;4.32;;;2.38;;
26036;SDS011;13810;48.376;10.944;2022-10-16T00:39:41;3.80;;;2.50;;
26036;SDS011;13810;48.376;10.944;2022-10-16T00:40:11;4.60;;;2.47;;
26036;SDS011;13810;48.376;10.944;2022-10-16T00:40:42;3.25;;;2.40;;
26036;SDS011;13810;48.376;10.944;2022-10-16T00:41:15;3.40;;;2.58;;
26036;SDS011;13810;48.376;10.944;2022-10-16T00:41:46;5.93;;;2.83;;
26036;SDS011;13810;48.376;10.944;2022-10-16T00:42:18;2.78;;;2.17;;
26036;SDS011;13810;48.376;10.944;2022-10-16T00:42:48;2.67;;;2.03;;
26036;SDS011;13810;48.376;10.944;2022-10-16T00:44:52;3.28;;;2.50;;
26036;SDS011;13810;48.376;10.944;2022-10-16T00:45:28;2.67;;;2.15;;
26036;SDS011;13810;48.376;10.944;2022-10-16T00:46:02;3.88;;;2.30;;
26036;SDS011;13810;48.376;10.944;2022-10-16T00:46:35;3.22;;;2.00;;
26036;SDS011;13810;48.376;10.944;2022-10-16T00:47:09;2.33;;;2.00;;
26036;SDS011;13810;48.376;10.944;2022-10-16T00:47:43;3.40;;;2.20;;
26036;SDS011;13810;48.376;10.944;2022-10-16T00:48:18;3.30;;;2.13;;
26036;SDS011;13810;48.376;10.944;2022-10-16T00:49:03;5.43;;;2.22;;
26036;SDS011;13810;48.376;10.944;2022-10-16T00:50:13;3.35;;;1.95;;
26036;SDS011;13810;48.376;10.944;2022-10-16T00:50:51;2.28;;;1.88;;
26036;SDS011;13810;48.376;10.944;2022-10-16T00:51:25;3.45;;;2.30;;
26036;SDS011;13810;48.376;10.944;2022-10-16T00:52:05;4.85;;;2.25;;
26036;SDS011;13810;48.376;10.944;2022-10-16T00:52:36;4.10;;;2.55;;
26036;SDS011;13810;48.376;10.944;2022-10-16T00:53:11;3.38;;;2.25;;
26036;SDS011;13810;48.376;10.944;2022-10-16T00:53:42;4.60;;;2.33;;
26036;SDS011;13810;48.376;10.944;2022-10-16T00:54:31;3.92;;;2.28;;
26036;SDS011;13810;48.376;10.944;2022-10-16T00:55:02;4.50;;;2.65;;
26036;SDS011;13810;48.376;10.944;2022-10-16T00:55:36;3.03;;;2.17;;
26036;SDS011;13810;48.376;10.944;2022-10-16T00:56:06;3.42;;;2.20;;
26036;SDS011;13810;48.376;10.944;2022-10-16T00:56:37;3.88;;;2.30;;
26036;SDS011;13810;48.376;10.944;2022-10-16T00:57:08;2.67;;;1.77;;
26036;SDS011;13810;48.376;10.944;2022-10-16T00:57:39;4.10;;;2.15;;
26036;SDS011;13810;48.376;10.944;2022-10-16T00:58:10;3.75;;;2.08;;
26036;SDS011;13810;48.376;10.944;2022-10-16T00:58:41;4.65;;;2.28;;
26036;SDS011;13810;48.376;10.944;2022-10-16T00:59:32;3.20;;;2.28;;
26036;SDS011;13810;48.376;10.944;2022-10-16T01:00:09;2.83;;;1.90;;
26036;SDS011;13810;48.376;10.944;2022-10-16T01:00:41;4.00;;;2.35;;
26036;SDS011;13810;48.376;10.944;2022-10-16T01:01:12;2.63;;;2.08;;
26036;SDS011;13810;48.376;10.944;2022-10-16T01:01:42;2.55;;;2.00;;
26036;SDS011;13810;48.376;10.944;2022-10-16T01:02:14;3.60;;;2.42;;
26036;SDS011;13810;48.376;10.944;2022-10-16T01:02:51;4.03;;;1.80;;
26036;SDS011;13810;48.376;10.944;2022-10-16T01:04:02;3.90;;;1.88;;
26036;SDS011;13810;48.376;10.944;2022-10-16T01:04:40;4.25;;;1.80;;
26036;SDS011;13810;48.376;10.944;2022-10-16T01:05:17;2.28;;;1.70;;
26036;SDS011;13810;48.376;10.944;2022-10-16T01:05:54;3.67;;;2.05;;
26036;SDS011;13810;48.376;10.944;2022-10-16T01:07:30;1.73;;;1.63;;
26036;SDS011;13810;48.376;10.944;2022-10-16T01:08:17;3.08;;;2.15;;
26036;SDS011;13810;48.376;10.944;2022-10-16T01:08:57;2.83;;;1.90;;
26036;SDS011;13810;48.376;10.944;2022-10-16T01:09:47;3.63;;;1.73;;
26036;SDS011;13810;48.376;10.944;2022-10-16T01:10:30;6.45;;;2.30;;
26036;SDS011;13810;48.376;10.944;2022-10-16T01:11:10;2.40;;;1.75;;
26036;SDS011;13810;48.376;10.944;2022-10-16T01:12:08;5.07;;;2.03;;
26036;SDS011;13810;48.376;10.944;2022-10-16T01:13:38;3.55;;;2.10;;
26036;SDS011;13810;48.376;10.944;2022-10-16T01:14:20;7.82;;;3.05;;
26036;SDS011;13810;48.376;10.944;2022-10-16T01:15:11;6.60;;;2.47;;
26036;SDS011;13810;48.376;10.944;2022-10-16T01:16:01;5.82;;;2.17;;
26036;SDS011;13810;48.376;10.944;2022-10-16T01:16:46;3.47;;;2.00;;
26036;SDS011;13810;48.376;10.944;2022-10-16T01:17:34;2.42;;;2.20;;
26036;SDS011;13810;48.376;10.944;2022-10-16T01:19:19;4.55;;;2.17;;
26036;SDS011;13810;48.376;10.944;2022-10-16T01:21:04;6.10;;;1.60;;
26036;SDS011;13810;48.376;10.944;2022-10-16T01:21:40;3.17;;;2.10;;
26036;SDS011;13810;48.376;10.944;2022-10-16T01:22:14;2.17;;;1.75;;
26036;SDS011;13810;48.376;10.944;2022-10-16T01:25:11;2.17;;;1.52;;
26036;SDS011;13810;48.376;10.944;2022-10-16T01:27:32;2.40;;;1.77;;
26036;SDS011;13810;48.376;10.944;2022-10-16T01:28:06;2.58;;;1.45;;
26036;SDS011;13810;48.376;10.944;2022-10-16T01:28:55;2.35;;;1.83;;
26036;SDS011;13810;48.376;10.944;2022-10-16T01:29:52;3.38;;;1.98;;
26036;SDS011;13810;48.376;10.944;2022-10-16T01:30:30;6.57;;;1.60;;
26036;SDS011;13810;48.376;10.944;2022-10-16T01:31:04;2.05;;;1.73;;
26036;SDS011;13810;48.376;10.944;2022-10-16T01:31:35;2.58;;;2.33;;
26036;SDS011;13810;48.376;10.944;2022-10-16T01:32:18;3.90;;;2.13;;
26036;SDS011;13810;48.376;10.944;2022-10-16T01:33:23;2.40;;;1.63;;
26036;SDS011;13810;48.376;10.944;2022-10-16T01:34:07;5.57;;;2.13;;
26036;SDS011;13810;48.376;10.944;2022-10-16T01:34:51;3.75;;;1.70;;
26036;SDS011;13810;48.376;10.944;2022-10-16T01:35:25;3.22;;;1.88;;
26036;SDS011;13810;48.376;10.944;2022-10-16T01:36:01;2.63;;;1.98;;
26036;SDS011;13810;48.376;10.944;2022-10-16T01:36:38;4.00;;;1.77;;
26036;SDS011;13810;48.376;10.944;2022-10-16T01:37:12;3.50;;;2.00;;
26036;SDS011;13810;48.376;10.944;2022-10-16T01:37:51;2.50;;;1.88;;
26036;SDS011;13810;48.376;10.944;2022-10-16T01:38:34;2.65;;;1.75;;
26036;SDS011;13810;48.376;10.944;2022-10-16T01:39:08;4.38;;;1.63;;
26036;SDS011;13810;48.376;10.944;2022-10-16T01:39:41;3.70;;;1.95;;
26036;SDS011;13810;48.376;10.944;2022-10-16T01:40:16;2.17;;;1.65;;
26036;SDS011;13810;48.376;10.944;2022-10-16T01:40:50;1.88;;;1.65;;
26036;SDS011;13810;48.376;10.944;2022-10-16T01:41:33;3.15;;;1.95;;
26036;SDS011;13810;48.376;10.944;2022-10-16T01:42:13;2.80;;;1.80;;
26036;SDS011;13810;48.376;10.944;2022-10-16T01:43:03;2.53;;;1.80;;
26036;SDS011;13810;48.376;10.944;2022-10-16T01:43:38;4.13;;;2.90;;
26036;SDS011;13810;48.376;10.944;2022-10-16T01:44:25;6.82;;;2.10;;
26036;SDS011;13810;48.376;10.944;2022-10-16T01:44:59;3.45;;;1.80;;
26036;SDS011;13810;48.376;10.944;2022-10-16T01:45:31;3.35;;;1.60;;
26036;SDS011;13810;48.376;10.944;2022-10-16T01:46:03;3.70;;;1.75;;
26036;SDS011;13810;48.376;10.944;2022-10-16T01:46:36;4.28;;;1.55;;
26036;SDS011;13810;48.376;10.944;2022-10-16T01:47:10;2.35;;;1.85;;
26036;SDS011;13810;48.376;10.944;2022-10-16T01:47:43;2.28;;;1.95;;
26036;SDS011;13810;48.376;10.944;2022-10-16T01:48:15;3.60;;;1.40;;
26036;SDS011;13810;48.376;10.944;2022-10-16T01:48:48;5.10;;;1.88;;
26036;SDS011;13810;48.376;10.944;2022-10-16T01:49:21;7.28;;;1.73;;
26036;SDS011;13810;48.376;10.944;2022-10-16T01:49:55;2.50;;;1.60;;
26036;SDS011;13810;48.376;10.944;2022-10-16T01:50:27;2.58;;;1.52;;
26036;SDS011;13810;48.376;10.944;2022-10-16T01:51:01;3.42;;;1.60;;
26036;SDS011;13810;48.376;10.944;2022-10-16T01:51:37;3.90;;;1.63;;
26036;SDS011;13810;48.376;10.944;2022-10-16T01:52:09;2.88;;;1.85;;
26036;SDS011;13810;48.376;10.944;2022-10-16T01:52:45;1.73;;;1.48;;
26036;SDS011;13810;48.376;10.944;2022-10-16T01:53:19;1.90;;;1.63;;
26036;SDS011;13810;48.376;10.944;2022-10-16T01:53:53;2.15;;;1.83;;
26036;SDS011;13810;48.376;10.944;2022-10-16T01:54:26;2.90;;;2.00;;
26036;SDS011;13810;48.376;10.944;2022-10-16T01:55:00;2.92;;;1.90;;
26036;SDS011;13810;48.376;10.944;2022-10-16T01:55:36;1.90;;;1.70;;
26036;SDS011;13810;48.376;10.944;2022-10-16T01:56:09;2.10;;;1.65;;
26036;SDS011;13810;48.376;10.944;2022-10-16T01:56:43;5.45;;;2.17;;
26036;SDS011;13810;48.376;10.944;2022-10-16T01:57:16;2.15;;;1.73;;
26036;SDS011;13810;48.376;10.944;2022-10-16T01:57:49;2.80;;;2.13;;
26036;SDS011;13810;48.376;10.944;2022-10-16T01:58:21;4.18;;;1.92;;
26036;SDS011;13810;48.376;10.944;2022-10-16T01:58:58;4.78;;;2.60;;
26036;SDS011;13810;48.376;10.944;2022-10-16T01:59:51;2.63;;;1.88;;
26036;SDS011;13810;48.376;10.944;2022-10-16T02:00:25;2.97;;;2.03;;
26036;SDS011;13810;48.376;10.944;2022-10-16T02:00:57;3.60;;;1.77;;
26036;SDS011;13810;48.376;10.944;2022-10-16T02:01:28;2.72;;;2.03;;
26036;SDS011;13810;48.376;10.944;2022-10-16T02:02:03;4.25;;;1.80;;
26036;SDS011;13810;48.376;10.944;2022-10-16T02:02:38;2.80;;;1.67;;
26036;SDS011;13810;48.376;10.944;2022-10-16T02:03:12;2.60;;;1.27;;
26036;SDS011;13810;48.376;10.944;2022-10-16T02:03:45;3.65;;;2.20;;
26036;SDS011;13810;48.376;10.944;2022-10-16T02:04:20;4.10;;;2.53;;
26036;SDS011;13810;48.376;10.944;2022-10-16T02:04:58;3.30;;;2.05;;
26036;SDS011;13810;48.376;10.944;2022-10-16T02:05:40;3.15;;;2.00;;
26036;SDS011;13810;48.376;10.944;2022-10-16T02:06:25;2.65;;;1.90;;
26036;SDS011;13810;48.376;10.944;2022-10-16T02:06:56;3.28;;;1.75;;
26036;SDS011;13810;48.376;10.944;2022-10-16T02:07:27;3.88;;;2.08;;
26036;SDS011;13810;48.376;10.944;2022-10-16T02:07:58;3.47;;;2.03;;
26036;SDS011;13810;48.376;10.944;2022-10-16T02:08:29;3.92;;;1.52;;
26036;SDS011;13810;48.376;10.944;2022-10-16T02:09:01;6.18;;;1.73;;
26036;SDS011;13810;48.376;10.944;2022-10-16T02:09:33;7.13;;;2.03;;
26036;SDS011;13810;48.376;10.944;2022-10-16T02:10:04;3.10;;;1.63;;
26036;SDS011;13810;48.376;10.944;2022-10-16T02:10:35;2.08;;;1.70;;
26036;SDS011;13810;48.376;10.944;2022-10-16T02:11:07;2.47;;;1.80;;
26036;SDS011;13810;48.376;10.944;2022-10-16T02:11:37;6.38;;;1.70;;
26036;SDS011;13810;48.376;10.944;2022-10-16T02:12:10;2.78;;;1.85;;
26036;SDS011;13810;48.376;10.944;2022-10-16T02:12:56;2.00;;;1.80;;
26036;SDS011;13810;48.376;10.944;2022-10-16T02:13:32;3.08;;;2.03;;
26036;SDS011;13810;48.376;10.944;2022-10-16T02:14:07;2.47;;;1.63;;
26036;SDS011;13810;48.376;10.944;2022-10-16T02:14:39;2.20;;;1.73;;
26036;SDS011;13810;48.376;10.944;2022-10-16T02:15:10;4.93;;;1.70;;
26036;SDS011;13810;48.376;10.944;2022-10-16T02:15:40;2.85;;;1.50;;
26036;SDS011;13810;48.376;10.944;2022-10-16T02:16:12;6.03;;;1.70;;
26036;SDS011;13810;48.376;10.944;2022-10-16T02:16:44;4.28;;;1.50;;
26036;SDS011;13810;48.376;10.944;2022-10-16T02:17:17;3.15;;;1.80;;
26036;SDS011;13810;48.376;10.944;2022-10-16T02:17:48;2.03;;;1.58;;
26036;SDS011;13810;48.376;10.944;2022-10-16T02:18:19;3.95;;;1.75;;
26036;SDS011;13810;48.376;10.944;2022-10-16T02:18:50;2.88;;;1.48;;
26036;SDS011;13810;48.376;10.944;2022-10-16T02:19:20;1.95;;;1.73;;
26036;SDS011;13810;48.376;10.944;2022-10-16T02:19:53;3.58;;;1.80;;
26036;SDS011;13810;48.376;10.944;2022-10-16T02:20:27;1.98;;;1.45;;
26036;SDS011;13810;48.376;10.944;2022-10-16T02:21:05;2.33;;;1.92;;
26036;SDS011;13810;48.376;10.944;2022-10-16T02:22:34;2.75;;;1.40;;
26036;SDS011;13810;48.376;10.944;2022-10-16T02:23:08;1.88;;;1.50;;
26036;SDS011;13810;48.376;10.944;2022-10-16T02:24:58;2.58;;;1.80;;
26036;SDS011;13810;48.376;10.944;2022-10-16T02:25:37;3.45;;;1.75;;
26036;SDS011;13810;48.376;10.944;2022-10-16T02:26:12;3.45;;;1.42;;
26036;SDS011;13810;48.376;10.944;2022-10-16T02:26:51;2.72;;;1.70;;
26036;SDS011;13810;48.376;10.944;2022-10-16T02:28:22;2.75;;;1.67;;
26036;SDS011;13810;48.376;10.944;2022-10-16T02:29:02;2.83;;;1.30;;
26036;SDS011;13810;48.376;10.944;2022-10-16T02:29:38;2.05;;;1.60;;
26036;SDS011;13810;48.376;10.944;2022-10-16T02:31:04;2.33;;;1.80;;
26036;SDS011;13810;48.376;10.944;2022-10-16T02:31:41;2.00;;;1.50;;
26036;SDS011;13810;48.376;10.944;2022-10-16T02:32:18;2.20;;;1.42;;
26036;SDS011;13810;48.376;10.944;2022-10-16T02:32:53;3.65;;;1.70;;
26036;SDS011;13810;48.376;10.944;2022-10-16T02:33:24;2.45;;;1.83;;
26036;SDS011;13810;48.376;10.944;2022-10-16T02:33:57;6.82;;;2.70;;
26036;SDS011;13810;48.376;10.944;2022-10-16T02:34:30;2.30;;;1.58;;
26036;SDS011;13810;48.376;10.944;2022-10-16T02:35:02;4.68;;;1.50;;
26036;SDS011;13810;48.376;10.944;2022-10-16T02:35:35;2.53;;;1.67;;
26036;SDS011;13810;48.376;10.944;2022-10-16T02:36:07;2.95;;;1.70;;
26036;SDS011;13810;48.376;10.944;2022-10-16T02:36:39;3.95;;;1.63;;
26036;SDS011;13810;48.376;10.944;2022-10-16T02:37:11;1.75;;;1.60;;
26036;SDS011;13810;48.376;10.944;2022-10-16T02:37:42;3.92;;;1.65;;
26036;SDS011;13810;48.376;10.944;2022-10-16T02:38:13;2.78;;;1.35;;
26036;SDS011;13810;48.376;10.944;2022-10-16T02:38:46;2.15;;;1.52;;
26036;SDS011;13810;48.376;10.944;2022-10-16T02:39:17;6.85;;;2.33;;
26036;SDS011;13810;48.376;10.944;2022-10-16T02:39:49;2.13;;;1.70;;
26036;SDS011;13810;48.376;10.944;2022-10-16T02:40:20;2.92;;;1.67;;
26036;SDS011;13810;48.376;10.944;2022-10-16T02:40:51;1.73;;;1.35;;
26036;SDS011;13810;48.376;10.944;2022-10-16T02:41:21;1.88;;;1.60;;
26036;SDS011;13810;48.376;10.944;2022-10-16T02:41:53;2.28;;;1.60;;
26036;SDS011;13810;48.376;10.944;2022-10-16T02:42:27;3.70;;;1.75;;
26036;SDS011;13810;48.376;10.944;2022-10-16T02:43:00;2.50;;;1.50;;
26036;SDS011;13810;48.376;10.944;2022-10-16T02:43:33;2.42;;;1.50;;
26036;SDS011;13810;48.376;10.944;2022-10-16T02:44:03;4.10;;;1.75;;
26036;SDS011;13810;48.376;10.944;2022-10-16T02:44:34;4.03;;;1.67;;
26036;SDS011;13810;48.376;10.944;2022-10-16T02:45:05;3.15;;;1.50;;
26036;SDS011;13810;48.376;10.944;2022-10-16T02:45:37;1.33;;;1.20;;
26036;SDS011;13810;48.376;10.944;2022-10-16T02:46:08;4.28;;;1.70;;
26036;SDS011;13810;48.376;10.944;2022-10-16T02:46:39;2.35;;;1.65;;
26036;SDS011;13810;48.376;10.944;2022-10-16T02:47:09;3.63;;;1.83;;
26036;SDS011;13810;48.376;10.944;2022-10-16T02:47:40;1.85;;;1.63;;
26036;SDS011;13810;48.376;10.944;2022-10-16T02:48:11;1.83;;;1.50;;
26036;SDS011;13810;48.376;10.944;2022-10-16T02:48:42;2.80;;;1.70;;
26036;SDS011;13810;48.376;10.944;2022-10-16T02:49:12;2.28;;;1.38;;
26036;SDS011;13810;48.376;10.944;2022-10-16T02:49:43;2.25;;;1.60;;
26036;SDS011;13810;48.376;10.944;2022-10-16T02:50:14;1.85;;;1.63;;
26036;SDS011;13810;48.376;10.944;2022-10-16T02:50:45;7.05;;;1.70;;
26036;SDS011;13810;48.376;10.944;2022-10-16T02:51:15;3.92;;;1.80;;
26036;SDS011;13810;48.376;10.944;2022-10-16T02:51:46;3.05;;;1.52;;
26036;SDS011;13810;48.376;10.944;2022-10-16T02:52:16;2.60;;;1.65;;
26036;SDS011;13810;48.376;10.944;2022-10-16T02:52:47;5.78;;;1.50;;
26036;SDS011;13810;48.376;10.944;2022-10-16T02:53:18;2.85;;;1.73;;
26036;SDS011;13810;48.376;10.944;2022-10-16T02:53:49;2.38;;;1.70;;
26036;SDS011;13810;48.376;10.944;2022-10-16T02:54:19;3.08;;;1.40;;
26036;SDS011;13810;48.376;10.944;2022-10-16T02:54:50;2.67;;;1.73;;
26036;SDS011;13810;48.376;10.944;2022-10-16T02:55:21;2.00;;;1.70;;
26036;SDS011;13810;48.376;10.944;2022-10-16T02:55:52;3.65;;;1.50;;
26036;SDS011;13810;48.376;10.944;2022-10-16T02:56:23;1.70;;;1.33;;
26036;SDS011;13810;48.376;10.944;2022-10-16T02:56:54;1.52;;;1.40;;
26036;SDS011;13810;48.376;10.944;2022-10-16T02:57:24;3.28;;;1.83;;
26036;SDS011;13810;48.376;10.944;2022-10-16T02:57:55;2.75;;;1.40;;
26036;SDS011;13810;48.376;10.944;2022-10-16T02:58:25;4.25;;;1.50;;
26036;SDS011;13810;48.376;10.944;2022-10-16T02:58:56;2.42;;;1.40;;
26036;SDS011;13810;48.376;10.944;2022-10-16T02:59:27;1.60;;;1.45;;
26036;SDS011;13810;48.376;10.944;2022-10-16T02:59:58;1.58;;;1.42;;
26036;SDS011;13810;48.376;10.944;2022-10-16T03:00:28;2.22;;;1.58;;
26036;SDS011;13810;48.376;10.944;2022-10-16T03:00:59;2.33;;;1.40;;
26036;SDS011;13810;48.376;10.944;2022-10-16T03:01:30;2.63;;;1.63;;
26036;SDS011;13810;48.376;10.944;2022-10-16T03:02:00;3.05;;;1.23;;
26036;SDS011;13810;48.376;10.944;2022-10-16T03:02:31;1.55;;;1.30;;
26036;SDS011;13810;48.376;10.944;2022-10-16T03:03:01;4.78;;;1.52;;
26036;SDS011;13810;48.376;10.944;2022-10-16T03:03:32;3.92;;;1.52;;
26036;SDS011;13810;48.376;10.944;2022-10-16T03:04:03;1.75;;;1.50;;
26036;SDS011;13810;48.376;10.944;2022-10-16T03:04:33;2.13;;;1.40;;
26036;SDS011;13810;48.376;10.944;2022-10-16T03:05:04;1.63;;;1.45;;
26036;SDS011;13810;48.376;10.944;2022-10-16T03:05:35;2.90;;;1.70;;
26036;SDS011;13810;48.376;10.944;2022-10-16T03:06:06;1.58;;;1.40;;
26036;SDS011;13810;48.376;10.944;2022-10-16T03:06:37;4.38;;;1.50;;
26036;SDS011;13810;48.376;10.944;2022-10-16T03:07:07;3.33;;;1.52;;
26036;SDS011;13810;48.376;10.944;2022-10-16T03:07:38;2.00;;;1.52;;
26036;SDS011;13810;48.376;10.944;2022-10-16T03:08:09;2.92;;;1.92;;
26036;SDS011;13810;48.376;10.944;2022-10-16T03:08:39;5.18;;;1.67;;
26036;SDS011;13810;48.376;10.944;2022-10-16T03:09:10;3.15;;;1.48;;
26036;SDS011;13810;48.376;10.944;2022-10-16T03:09:40;2.22;;;1.70;;
26036;SDS011;13810;48.376;10.944;2022-10-16T03:10:11;1.70;;;1.55;;
26036;SDS011;13810;48.376;10.944;2022-10-16T03:10:42;2.83;;;1.58;;
26036;SDS011;13810;48.376;10.944;2022-10-16T03:11:12;3.88;;;1.77;;
26036;SDS011;13810;48.376;10.944;2022-10-16T03:11:43;2.22;;;2.00;;
26036;SDS011;13810;48.376;10.944;2022-10-16T03:12:14;1.63;;;1.17;;
26036;SDS011;13810;48.376;10.944;2022-10-16T03:12:44;2.72;;;1.55;;
26036;SDS011;13810;48.376;10.944;2022-10-16T03:13:15;2.60;;;1.40;;
26036;SDS011;13810;48.376;10.944;2022-10-16T03:13:46;4.75;;;1.58;;
26036;SDS011;13810;48.376;10.944;2022-10-16T03:14:16;4.07;;;1.60;;
26036;SDS011;13810;48.376;10.944;2022-10-16T03:14:47;1.90;;;1.67;;
26036;SDS011;13810;48.376;10.944;2022-10-16T03:15:18;2.13;;;1.23;;
26036;SDS011;13810;48.376;10.944;2022-10-16T03:15:48;2.55;;;1.67;;
26036;SDS011;13810;48.376;10.944;2022-10-16T03:16:19;2.33;;;1.55;;
26036;SDS011;13810;48.376;10.944;2022-10-16T03:16:50;2.05;;;1.38;;
26036;SDS011;13810;48.376;10.944;2022-10-16T03:17:21;3.60;;;1.60;;
26036;SDS011;13810;48.376;10.944;2022-10-16T03:17:51;4.78;;;1.33;;
26036;SDS011;13810;48.376;10.944;2022-10-16T03:18:22;1.80;;;1.40;;
26036;SDS011;13810;48.376;10.944;2022-10-16T03:18:53;1.65;;;1.50;;
26036;SDS011;13810;48.376;10.944;2022-10-16T03:19:23;2.17;;;1.60;;
26036;SDS011;13810;48.376;10.944;2022-10-16T03:19:54;3.17;;;1.48;;
26036;SDS011;13810;48.376;10.944;2022-10-16T03:20:25;1.40;;;1.30;;
26036;SDS011;13810;48.376;10.944;2022-10-16T03:20:56;1.75;;;1.50;;
26036;SDS011;13810;48.376;10.944;2022-10-16T03:21:27;1.52;;;1.42;;
26036;SDS011;13810;48.376;10.944;2022-10-16T03:21:57;3.47;;;1.50;;
26036;SDS011;13810;48.376;10.944;2022-10-16T03:22:28;1.83;;;1.30;;
26036;SDS011;13810;48.376;10.944;2022-10-16T03:22:58;2.85;;;1.23;;
26036;SDS011;13810;48.376;10.944;2022-10-16T03:23:29;2.70;;;1.55;;
26036;SDS011;13810;48.376;10.944;2022-10-16T03:24:00;2.17;;;1.52;;
26036;SDS011;13810;48.376;10.944;2022-10-16T03:24:30;1.88;;;1.25;;
26036;SDS011;13810;48.376;10.944;2022-10-16T03:25:01;1.67;;;1.40;;
26036;SDS011;13810;48.376;10.944;2022-10-16T03:25:32;5.03;;;1.45;;
26036;SDS011;13810;48.376;10.944;2022-10-16T03:26:02;1.90;;;1.30;;
26036;SDS011;13810;48.376;10.944;2022-10-16T03:26:33;2.17;;;1.33;;
26036;SDS011;13810;48.376;10.944;2022-10-16T03:27:04;1.30;;;1.20;;
26036;SDS011;13810;48.376;10.944;2022-10-16T03:27:34;4.22;;;1.10;;
26036;SDS011;13810;48.376;10.944;2022-10-16T03:28:05;2.20;;;1.40;;
26036;SDS011;13810;48.376;10.944;2022-10-16T03:28:36;3.65;;;1.83;;
26036;SDS011;13810;48.376;10.944;2022-10-16T03:29:06;6.22;;;1.50;;
26036;SDS011;13810;48.376;10.944;2022-10-16T03:29:37;2.80;;;1.50;;
26036;SDS011;13810;48.376;10.944;2022-10-16T03:30:08;1.58;;;1.23;;
26036;SDS011;13810;48.376;10.944;2022-10-16T03:30:39;1.98;;;1.70;;
26036;SDS011;13810;48.376;10.944;2022-10-16T03:31:09;5.60;;;1.60;;
26036;SDS011;13810;48.376;10.944;2022-10-16T03:31:40;6.75;;;1.73;;
26036;SDS011;13810;48.376;10.944;2022-10-16T03:32:11;1.88;;;1.65;;
26036;SDS011;13810;48.376;10.944;2022-10-16T03:32:41;2.20;;;1.60;;
26036;SDS011;13810;48.376;10.944;2022-10-16T03:33:14;1.65;;;1.30;;